Time;durP1;ratioP1;P1;durP2;ratioP2;P2;SDS_P1;SDS_P2;PMS_P1;PMS_P2;Temp;Humidity;BMP_temperature;BMP_pressure;BME280_temperature;BME280_humidity;BME280_pressure;Samples;Min_cycle;Max_cycle;Signal;HPM_P1;HPM_P2
2022/01/09 00:00:20;;;;;;;;;;;;;;;;;;2104433;28;1394;-75
2022/01/09 00:01:24;;;;;;;;;;;;;;;;;;2102002;28;1267;-75
2022/01/09 00:02:24;;;;;;;;;;;;;;;;;;2101810;28;1485;-75
2022/01/09 00:03:26;;;;;;;;;;;;;;;;;;2101781;28;1682;-74
2022/01/09 00:04:29;;;;;;;;;;;;;;;;;;2101706;28;1408;-76
2022/01/09 00:05:30;;;;;;;;;;;;;;;;;;2101818;28;1595;-75
2022/01/09 00:06:32;;;;;;;;;;;;;;;;;;2102220;28;1676;-76
2022/01/09 00:07:34;;;;;;;;;;;;;;;;;;2101912;28;1498;-75
2022/01/09 00:08:40;;;;;;;;;;;;;;;;;;2101669;28;1377;-76
2022/01/09 00:09:44;;;;;;;;;;;;;;;;;;2102749;28;1326;-75
2022/01/09 00:10:47;;;;;;;;;;;;;;;;;;2104246;28;1396;-75
2022/01/09 00:11:49;;;;;;;;;;;;;;;;;;2104516;28;1419;-76
2022/01/09 00:12:51;;;;;;;;;;;;;;;;;;2101009;28;1709;-74
2022/01/09 00:13:52;;;;;;;;;;;;;;;;;;2101733;28;1997;-76
2022/01/09 00:14:53;;;;;;;;;;;;;;;;;;2101869;28;1488;-75
2022/01/09 00:15:55;;;;;;;;;;;;;;;;;;2104359;28;1291;-74
2022/01/09 00:16:55;;;;;;;;;;;;;;;;;;2104136;28;1204;-74
2022/01/09 00:17:57;;;;;;;;;;;;;;;;;;2104371;28;1976;-74
2022/01/09 00:18:58;;;;;;;;;;;;;;;;;;2104779;28;1623;-75
2022/01/09 00:20:00;;;;;;;;;;;;;;;;;;2101903;28;1516;-75
2022/01/09 00:21:06;;;;;;;;;;;;;;;;;;2101872;28;1663;-75
2022/01/09 00:22:07;;;;;;;;;;;;;;;;;;2100837;28;1331;-76
2022/01/09 00:23:09;;;;;;;;;;;;;;;;;;2100836;28;1385;-75
2022/01/09 00:24:12;;;;;;;;;;;;;;;;;;2109798;28;1727;-75
2022/01/09 00:25:20;;;;;;;;;;;;;;;;;;2105064;28;1487;-74
2022/01/09 00:26:21;;;;;;;;;;;;;;;;;;2106458;28;1466;-74
2022/01/09 00:27:22;;;;;;;;;;;;;;;;;;2106247;28;1381;-74
2022/01/09 00:28:24;;;;;;;;;;;;;;;;;;2103336;28;1434;-75
2022/01/09 00:29:25;;;;;;;;;;;;;;;;;;2102726;28;1431;-76
2022/01/09 00:30:29;;;;;;;;;;;;;;;;;;2102414;28;1661;-75
2022/01/09 00:31:33;;;;;;;;;;;;;;;;;;2109329;28;1456;-76
2022/01/09 00:32:34;;;;;;;;;;;;;;;;;;2112136;28;1382;-75
2022/01/09 00:33:37;;;;;;;;;;;;;;;;;;2103102;28;1636;-76
2022/01/09 00:34:39;;;;;;;;;;;;;;;;;;2104393;28;1421;-76
2022/01/09 00:35:44;;;;;;;;;;;;;;;;;;2100829;28;1275;-75
2022/01/09 00:36:46;;;;;;;;;;;;;;;;;;2108716;28;1582;-76
2022/01/09 00:37:49;;;;;;;;;;;;;;;;;;2101734;28;1400;-75
2022/01/09 00:38:50;;;;;;;;;;;;;;;;;;2101569;28;1349;-76
2022/01/09 00:39:55;;;;;;;;;;;;;;;;;;2101973;28;1674;-75
2022/01/09 00:41:03;;;;;;;;;;;;;;;;;;2104253;28;1322;-76
2022/01/09 00:42:06;;;;;;;;;;;;;;;;;;2100878;28;1631;-76
2022/01/09 00:43:10;;;;;;;;;;;;;;;;;;2102567;28;1411;-76
2022/01/09 00:44:14;;;;;;;;;;;;;;;;;;2100158;28;1397;-76
2022/01/09 00:45:19;;;;;;;;;;;;;;;;;;2102401;28;1727;-76
2022/01/09 00:46:26;;;;;;;;;;;;;;;;;;2101617;28;1350;-76
2022/01/09 00:47:33;;;;;;;;;;;;;;;;;;2095315;28;1406;-76
2022/01/09 00:48:38;;;;;;;;;;;;;;;;;;2100147;28;1442;-75
2022/01/09 00:49:39;;;;;;;;;;;;;;;;;;2101761;28;1539;-75
2022/01/09 00:50:48;;;;;;;;;;;;;;;;;;2100973;28;1438;-74
2022/01/09 00:51:49;;;;;;;;;;;;;;;;;;2104255;28;1835;-75
2022/01/09 00:52:54;;;;;;;;;;;;;;;;;;2104839;28;1403;-75
2022/01/09 00:53:57;;;;;;;;;;;;;;;;;;2105770;28;1362;-76
2022/01/09 00:54:59;;;;;;;;;;;;;;;;;;2101659;28;1204;-74
2022/01/09 00:56:01;;;;;;;;;;;;;;;;;;2103665;28;1477;-75
2022/01/09 00:57:07;;;;;;;;;;;;;;;;;;2101306;28;1839;-74
2022/01/09 00:58:10;;;;;;;;;;;;;;;;;;2102520;28;1906;-75
2022/01/09 00:59:11;;;;;;;;;;;;;;;;;;2102717;28;1369;-75
2022/01/09 01:00:14;;;;;;;;;;;;;;;;;;2102118;28;1674;-75
2022/01/09 01:01:15;;;;;;;;;;;;;;;;;;2103126;28;1432;-76
2022/01/09 01:02:17;;;;;;;;;;;;;;;;;;2101273;28;1409;-75
2022/01/09 01:03:18;;;;;;;;;;;;;;;;;;2102406;28;1708;-75
2022/01/09 01:04:20;;;;;;;;;;;;;;;;;;2104805;28;1508;-76
2022/01/09 01:05:22;;;;;;;;;;;;;;;;;;2104449;28;1322;-75
2022/01/09 01:06:23;;;;;;;;;;;;;;;;;;2103563;28;1687;-76
2022/01/09 01:07:24;;;;;;;;;;;;;;;;;;2103885;28;1318;-75
2022/01/09 01:08:25;;;;;;;;;;;;;;;;;;2102161;28;1345;-74
2022/01/09 01:09:30;;;;;;;;;;;;;;;;;;2103506;28;1675;-75
2022/01/09 01:10:42;;;;;;;;;;;;;;;;;;2103832;28;1285;-75
2022/01/09 01:11:47;;;;;;;;;;;;;;;;;;2103984;28;1394;-74
2022/01/09 01:12:49;;;;;;;;;;;;;;;;;;2106227;28;2020;-74
2022/01/09 01:13:50;;;;;;;;;;;;;;;;;;2107353;28;1084;-75
2022/01/09 01:14:52;;;;;;;;;;;;;;;;;;2107510;28;799;-74
2022/01/09 01:15:53;;;;;;;;;;;;;;;;;;2106181;28;1730;-74
2022/01/09 01:16:54;;;;;;;;;;;;;;;;;;2107272;28;926;-75
2022/01/09 01:17:56;;;;;;;;;;;;;;;;;;2107545;28;1035;-75
2022/01/09 01:18:56;;;;;;;;;;;;;;;;;;2099329;28;1900;-74
2022/01/09 01:19:58;;;;;;;;;;;;;;;;;;2099105;28;899;-74
2022/01/09 01:20:59;;;;;;;;;;;;;;;;;;2098833;28;1939;-74
2022/01/09 01:22:03;;;;;;;;;;;;;;;;;;2106601;28;886;-74
2022/01/09 01:23:05;;;;;;;;;;;;;;;;;;2107330;28;1015;-74
2022/01/09 01:24:06;;;;;;;;;;;;;;;;;;2106566;28;1897;-74
2022/01/09 01:25:08;;;;;;;;;;;;;;;;;;2106575;28;1467;-74
2022/01/09 01:26:09;;;;;;;;;;;;;;;;;;2106693;28;877;-74
2022/01/09 01:27:12;;;;;;;;;;;;;;;;;;2105566;28;1978;-74
2022/01/09 01:28:12;;;;;;;;;;;;;;;;;;2106694;28;1040;-75
2022/01/09 01:29:14;;;;;;;;;;;;;;;;;;2098910;28;922;-75
2022/01/09 01:30:15;;;;;;;;;;;;;;;;;;2100788;28;1825;-74
2022/01/09 01:31:16;;;;;;;;;;;;;;;;;;2107234;28;823;-75
2022/01/09 01:32:17;;;;;;;;;;;;;;;;;;2106915;28;1083;-75
2022/01/09 01:33:18;;;;;;;;;;;;;;;;;;2106012;28;2088;-75
2022/01/09 01:34:21;;;;;;;;;;;;;;;;;;2107194;28;1086;-74
2022/01/09 01:35:27;;;;;;;;;;;;;;;;;;2107353;28;933;-75
2022/01/09 01:36:27;;;;;;;;;;;;;;;;;;2106058;28;1916;-75
2022/01/09 01:37:29;;;;;;;;;;;;;;;;;;2107342;28;803;-74
2022/01/09 01:38:29;;;;;;;;;;;;;;;;;;2106908;28;1965;-73
2022/01/09 01:39:31;;;;;;;;;;;;;;;;;;2106106;28;1920;-74
2022/01/09 01:40:32;;;;;;;;;;;;;;;;;;2106396;28;1094;-75
2022/01/09 01:41:33;;;;;;;;;;;;;;;;;;2107373;28;927;-75
2022/01/09 01:42:35;;;;;;;;;;;;;;;;;;2106043;28;1913;-74
2022/01/09 01:43:40;;;;;;;;;;;;;;;;;;2106599;28;1004;-75
2022/01/09 01:44:43;;;;;;;;;;;;;;;;;;2106543;28;1050;-75
2022/01/09 01:45:50;;;;;;;;;;;;;;;;;;2106139;28;1940;-74
2022/01/09 01:46:52;;;;;;;;;;;;;;;;;;2107147;28;883;-74
2022/01/09 01:47:54;;;;;;;;;;;;;;;;;;2107328;28;932;-74
2022/01/09 01:48:54;;;;;;;;;;;;;;;;;;2105240;28;1762;-74
2022/01/09 01:49:56;;;;;;;;;;;;;;;;;;2106716;28;1203;-74
2022/01/09 01:50:57;;;;;;;;;;;;;;;;;;2098196;28;910;-74
2022/01/09 01:51:59;;;;;;;;;;;;;;;;;;2097992;28;1950;-74
2022/01/09 01:53:01;;;;;;;;;;;;;;;;;;2107188;28;1031;-75
2022/01/09 01:54:01;;;;;;;;;;;;;;;;;;2105765;28;1926;-74
2022/01/09 01:55:05;;;;;;;;;;;;;;;;;;2106460;28;1091;-74
2022/01/09 01:56:07;;;;;;;;;;;;;;;;;;2107220;28;914;-74
2022/01/09 01:57:08;;;;;;;;;;;;;;;;;;2106308;28;1829;-74
2022/01/09 01:58:11;;;;;;;;;;;;;;;;;;2107190;28;930;-74
2022/01/09 01:59:13;;;;;;;;;;;;;;;;;;2107059;28;1973;-74
2022/01/09 02:00:17;;;;;;;;;;;;;;;;;;2105784;28;1907;-73
2022/01/09 02:01:19;;;;;;;;;;;;;;;;;;2107116;28;886;-73
2022/01/09 02:02:19;;;;;;;;;;;;;;;;;;2107044;28;916;-74
2022/01/09 02:03:21;;;;;;;;;;;;;;;;;;2106033;28;1809;-74
2022/01/09 02:04:24;;;;;;;;;;;;;;;;;;2107180;28;899;-74
2022/01/09 02:05:28;;;;;;;;;;;;;;;;;;2106703;28;1420;-74
2022/01/09 02:06:28;;;;;;;;;;;;;;;;;;2105786;28;1868;-73
2022/01/09 02:07:30;;;;;;;;;;;;;;;;;;2106468;28;1281;-74
2022/01/09 02:08:34;;;;;;;;;;;;;;;;;;2106571;28;1127;-74
2022/01/09 02:09:35;;;;;;;;;;;;;;;;;;2101532;28;1873;-74
2022/01/09 02:10:40;;;;;;;;;;;;;;;;;;2098362;28;940;-74
2022/01/09 02:11:41;;;;;;;;;;;;;;;;;;2098747;28;938;-74
2022/01/09 02:12:42;;;;;;;;;;;;;;;;;;2104481;28;1818;-74
2022/01/09 02:13:46;;;;;;;;;;;;;;;;;;2107130;28;931;-74
2022/01/09 02:14:48;;;;;;;;;;;;;;;;;;2107213;28;932;-73
2022/01/09 02:15:49;;;;;;;;;;;;;;;;;;2105899;28;1837;-73
2022/01/09 02:16:51;;;;;;;;;;;;;;;;;;2107090;28;978;-74
2022/01/09 02:17:52;;;;;;;;;;;;;;;;;;2106399;28;1355;-74
2022/01/09 02:18:53;;;;;;;;;;;;;;;;;;2105815;28;1983;-74
2022/01/09 02:19:56;;;;;;;;;;;;;;;;;;2106923;28;1050;-74
2022/01/09 02:20:57;;;;;;;;;;;;;;;;;;2107034;28;2013;-74
2022/01/09 02:21:59;;;;;;;;;;;;;;;;;;2099008;28;998;-74
2022/01/09 02:23:00;;;;;;;;;;;;;;;;;;2098597;28;990;-75
2022/01/09 02:24:02;;;;;;;;;;;;;;;;;;2098477;28;1841;-72
2022/01/09 02:25:02;;;;;;;;;;;;;;;;;;2107061;28;888;-74
2022/01/09 02:26:06;;;;;;;;;;;;;;;;;;2107095;28;1050;-74
2022/01/09 02:27:07;;;;;;;;;;;;;;;;;;2105891;28;1873;-74
2022/01/09 02:28:09;;;;;;;;;;;;;;;;;;2106998;28;974;-75
2022/01/09 02:29:10;;;;;;;;;;;;;;;;;;2107050;28;1008;-75
2022/01/09 02:30:13;;;;;;;;;;;;;;;;;;2105834;28;1877;-73
2022/01/09 02:31:14;;;;;;;;;;;;;;;;;;2107244;28;1013;-75
2022/01/09 02:32:17;;;;;;;;;;;;;;;;;;2107117;28;1112;-74
2022/01/09 02:33:17;;;;;;;;;;;;;;;;;;2107087;28;910;-74
2022/01/09 02:34:20;;;;;;;;;;;;;;;;;;2107100;28;947;-74
2022/01/09 02:35:23;;;;;;;;;;;;;;;;;;2107266;28;923;-74
2022/01/09 02:36:24;;;;;;;;;;;;;;;;;;2106286;28;1904;-74
2022/01/09 02:37:25;;;;;;;;;;;;;;;;;;2107026;28;905;-75
2022/01/09 02:38:26;;;;;;;;;;;;;;;;;;2107105;28;811;-74
2022/01/09 02:39:27;;;;;;;;;;;;;;;;;;2105776;28;1973;-74
2022/01/09 02:40:28;;;;;;;;;;;;;;;;;;2106949;28;1131;-73
2022/01/09 02:41:29;;;;;;;;;;;;;;;;;;2106963;28;953;-73
2022/01/09 02:42:31;;;;;;;;;;;;;;;;;;2106347;28;1766;-73
2022/01/09 02:43:32;;;;;;;;;;;;;;;;;;2107046;28;910;-73
2022/01/09 02:44:34;;;;;;;;;;;;;;;;;;2106960;28;928;-74
2022/01/09 02:45:35;;;;;;;;;;;;;;;;;;2105925;28;2009;-74
2022/01/09 02:46:49;;;;;;;;;;;;;;;;;;2106892;28;1042;-74
2022/01/09 02:47:51;;;;;;;;;;;;;;;;;;2107053;28;787;-75
2022/01/09 02:48:52;;;;;;;;;;;;;;;;;;2106199;28;1889;-74
2022/01/09 02:49:54;;;;;;;;;;;;;;;;;;2107168;28;1032;-74
2022/01/09 02:51:04;;;;;;;;;;;;;;;;;;2106852;28;870;-75
2022/01/09 02:52:11;;;;;;;;;;;;;;;;;;2099750;28;915;-75
2022/01/09 02:53:19;;;;;;;;;;;;;;;;;;2100178;28;937;-74
2022/01/09 02:55:42;;;;;;;;;;;;;;;;;;2108267;28;827;-74
2022/01/09 02:56:43;;;;;;;;;;;;;;;;;;2108481;28;1430;-73
2022/01/09 02:57:48;;;;;;;;;;;;;;;;;;2107105;28;1973;-74
2022/01/09 02:58:49;;;;;;;;;;;;;;;;;;2107766;28;1961;-74
2022/01/09 02:59:50;;;;;;;;;;;;;;;;;;2108447;28;1020;-74
2022/01/09 03:00:52;;;;;;;;;;;;;;;;;;2107588;28;1844;-74
2022/01/09 03:01:52;;;;;;;;;;;;;;;;;;2108655;28;890;-73
2022/01/09 03:02:54;;;;;;;;;;;;;;;;;;2108457;28;977;-74
2022/01/09 03:03:54;;;;;;;;;;;;;;;;;;2108447;28;811;-74
2022/01/09 03:04:57;;;;;;;;;;;;;;;;;;2108412;28;1199;-75
2022/01/09 03:06:02;;;;;;;;;;;;;;;;;;2107734;28;1917;-73
2022/01/09 03:07:03;;;;;;;;;;;;;;;;;;2108295;28;891;-74
2022/01/09 03:08:08;;;;;;;;;;;;;;;;;;2108387;28;1131;-74
2022/01/09 03:09:09;;;;;;;;;;;;;;;;;;2108527;28;959;-74
2022/01/09 03:10:11;;;;;;;;;;;;;;;;;;2108219;28;897;-73
2022/01/09 03:11:12;;;;;;;;;;;;;;;;;;2107670;28;1052;-74
2022/01/09 03:12:13;;;;;;;;;;;;;;;;;;2107455;28;1305;-74
2022/01/09 03:13:14;;;;;;;;;;;;;;;;;;2108300;28;906;-74
2022/01/09 03:14:18;;;;;;;;;;;;;;;;;;2108363;28;949;-74
2022/01/09 03:15:19;;;;;;;;;;;;;;;;;;2107474;28;1920;-74
2022/01/09 03:16:20;;;;;;;;;;;;;;;;;;2108274;28;1011;-74
2022/01/09 03:17:21;;;;;;;;;;;;;;;;;;2107722;28;954;-75
2022/01/09 03:18:23;;;;;;;;;;;;;;;;;;2107616;28;934;-73
2022/01/09 03:19:24;;;;;;;;;;;;;;;;;;2108143;28;1909;-74
2022/01/09 03:20:26;;;;;;;;;;;;;;;;;;2107406;28;1610;-74
2022/01/09 03:21:29;;;;;;;;;;;;;;;;;;2106543;28;1826;-73
2022/01/09 03:22:30;;;;;;;;;;;;;;;;;;2108368;28;958;-75
2022/01/09 03:23:31;;;;;;;;;;;;;;;;;;2108170;28;954;-74
2022/01/09 03:24:32;;;;;;;;;;;;;;;;;;2108317;28;1052;-75
2022/01/09 03:25:34;;;;;;;;;;;;;;;;;;2108406;28;1069;-74
2022/01/09 03:26:34;;;;;;;;;;;;;;;;;;2108095;28;875;-74
2022/01/09 03:27:37;;;;;;;;;;;;;;;;;;2107119;28;2132;-73
2022/01/09 03:28:38;;;;;;;;;;;;;;;;;;2107548;28;1024;-75
2022/01/09 03:29:39;;;;;;;;;;;;;;;;;;2108238;28;970;-74
2022/01/09 03:30:40;;;;;;;;;;;;;;;;;;2108167;28;912;-74
2022/01/09 03:31:44;;;;;;;;;;;;;;;;;;2108257;28;950;-74
2022/01/09 03:32:48;;;;;;;;;;;;;;;;;;2108103;28;950;-74
2022/01/09 03:33:48;;;;;;;;;;;;;;;;;;2108160;28;1034;-73
2022/01/09 03:34:50;;;;;;;;;;;;;;;;;;2108156;28;745;-74
2022/01/09 03:35:50;;;;;;;;;;;;;;;;;;2108208;28;1065;-74
2022/01/09 03:36:53;;;;;;;;;;;;;;;;;;2107356;28;1853;-74
2022/01/09 03:37:54;;;;;;;;;;;;;;;;;;2108085;28;1419;-74
2022/01/09 03:38:59;;;;;;;;;;;;;;;;;;2107438;28;1092;-75
2022/01/09 03:39:59;;;;;;;;;;;;;;;;;;2107521;28;1959;-74
2022/01/09 03:41:01;;;;;;;;;;;;;;;;;;2107304;28;1208;-74
2022/01/09 03:42:02;;;;;;;;;;;;;;;;;;2106822;28;2094;-75
2022/01/09 03:43:03;;;;;;;;;;;;;;;;;;2107756;28;1041;-74
2022/01/09 03:44:04;;;;;;;;;;;;;;;;;;2108182;28;890;-74
2022/01/09 03:45:07;;;;;;;;;;;;;;;;;;2106781;28;1951;-73
2022/01/09 03:46:09;;;;;;;;;;;;;;;;;;2108057;28;1026;-74
2022/01/09 03:47:10;;;;;;;;;;;;;;;;;;2108057;28;878;-73
2022/01/09 03:48:12;;;;;;;;;;;;;;;;;;2107966;28;919;-74
2022/01/09 03:49:12;;;;;;;;;;;;;;;;;;2107926;28;879;-75
2022/01/09 03:50:16;;;;;;;;;;;;;;;;;;2108051;28;1045;-74
2022/01/09 03:51:16;;;;;;;;;;;;;;;;;;2106832;28;1901;-74
2022/01/09 03:52:19;;;;;;;;;;;;;;;;;;2108004;28;941;-74
2022/01/09 03:53:20;;;;;;;;;;;;;;;;;;2108095;28;1069;-74
2022/01/09 03:54:22;;;;;;;;;;;;;;;;;;2111612;28;1874;-74
2022/01/09 03:55:24;;;;;;;;;;;;;;;;;;2098849;28;1350;-75
2022/01/09 03:56:25;;;;;;;;;;;;;;;;;;2107537;28;1116;-74
2022/01/09 03:57:26;;;;;;;;;;;;;;;;;;2106743;28;2052;-74
2022/01/09 03:58:28;;;;;;;;;;;;;;;;;;2107922;28;962;-73
2022/01/09 03:59:28;;;;;;;;;;;;;;;;;;2107265;28;1905;-74
2022/01/09 04:00:30;;;;;;;;;;;;;;;;;;2106034;28;1933;-74
2022/01/09 04:01:30;;;;;;;;;;;;;;;;;;2107953;28;934;-74
2022/01/09 04:02:32;;;;;;;;;;;;;;;;;;2107865;28;883;-74
2022/01/09 04:03:32;;;;;;;;;;;;;;;;;;2105772;28;1857;-74
2022/01/09 04:04:34;;;;;;;;;;;;;;;;;;2107113;28;1607;-73
2022/01/09 04:05:35;;;;;;;;;;;;;;;;;;2107449;28;1035;-73
2022/01/09 04:06:39;;;;;;;;;;;;;;;;;;2107887;28;938;-74
2022/01/09 04:07:42;;;;;;;;;;;;;;;;;;2107898;28;906;-74
2022/01/09 04:08:42;;;;;;;;;;;;;;;;;;2107656;28;927;-74
2022/01/09 04:09:45;;;;;;;;;;;;;;;;;;2107957;28;1085;-74
2022/01/09 04:10:48;;;;;;;;;;;;;;;;;;2107873;28;877;-74
2022/01/09 04:11:51;;;;;;;;;;;;;;;;;;2107810;28;1007;-74
2022/01/09 04:12:58;;;;;;;;;;;;;;;;;;2107710;28;907;-74
2022/01/09 04:14:02;;;;;;;;;;;;;;;;;;2107846;28;957;-75
2022/01/09 04:15:07;;;;;;;;;;;;;;;;;;2106798;28;1836;-74
2022/01/09 04:16:08;;;;;;;;;;;;;;;;;;2099413;28;822;-75
2022/01/09 04:17:17;;;;;;;;;;;;;;;;;;2098717;28;918;-73
2022/01/09 04:18:19;;;;;;;;;;;;;;;;;;2101169;28;1944;-74
2022/01/09 04:19:20;;;;;;;;;;;;;;;;;;2107757;28;1917;-75
2022/01/09 04:20:22;;;;;;;;;;;;;;;;;;2107864;28;990;-75
2022/01/09 04:21:25;;;;;;;;;;;;;;;;;;2106608;28;1990;-74
2022/01/09 04:22:28;;;;;;;;;;;;;;;;;;2107021;28;993;-74
2022/01/09 04:23:30;;;;;;;;;;;;;;;;;;2107223;28;1086;-75
2022/01/09 04:24:34;;;;;;;;;;;;;;;;;;2106548;28;1900;-74
2022/01/09 04:25:35;;;;;;;;;;;;;;;;;;2107796;28;949;-73
2022/01/09 04:26:36;;;;;;;;;;;;;;;;;;2107775;28;898;-73
2022/01/09 04:27:37;;;;;;;;;;;;;;;;;;2106466;28;2099;-74
2022/01/09 04:28:38;;;;;;;;;;;;;;;;;;2107187;28;925;-73
2022/01/09 04:29:40;;;;;;;;;;;;;;;;;;2098540;28;1199;-73
2022/01/09 04:30:41;;;;;;;;;;;;;;;;;;2106621;28;1969;-74
2022/01/09 04:31:42;;;;;;;;;;;;;;;;;;2099296;28;918;-74
2022/01/09 04:32:44;;;;;;;;;;;;;;;;;;2099362;28;916;-75
2022/01/09 04:33:45;;;;;;;;;;;;;;;;;;2099274;28;1095;-74
2022/01/09 04:34:47;;;;;;;;;;;;;;;;;;2099368;28;930;-74
2022/01/09 04:35:49;;;;;;;;;;;;;;;;;;2099314;28;1115;-74
2022/01/09 04:36:51;;;;;;;;;;;;;;;;;;2105939;28;1813;-74
2022/01/09 04:37:53;;;;;;;;;;;;;;;;;;2107583;28;900;-74
2022/01/09 04:38:56;;;;;;;;;;;;;;;;;;2107705;28;811;-74
2022/01/09 04:39:57;;;;;;;;;;;;;;;;;;2106334;28;1974;-74
2022/01/09 04:40:59;;;;;;;;;;;;;;;;;;2107744;28;883;-74
2022/01/09 04:41:59;;;;;;;;;;;;;;;;;;2106871;28;1821;-74
2022/01/09 04:43:03;;;;;;;;;;;;;;;;;;2099541;28;1050;-73
2022/01/09 04:44:04;;;;;;;;;;;;;;;;;;2099263;28;938;-74
2022/01/09 04:45:07;;;;;;;;;;;;;;;;;;2099288;28;933;-74
2022/01/09 04:46:07;;;;;;;;;;;;;;;;;;2099199;28;1068;-75
2022/01/09 04:47:13;;;;;;;;;;;;;;;;;;2099214;28;1046;-74
2022/01/09 04:48:15;;;;;;;;;;;;;;;;;;2100390;28;1955;-74
2022/01/09 04:49:17;;;;;;;;;;;;;;;;;;2107600;28;955;-74
2022/01/09 04:50:23;;;;;;;;;;;;;;;;;;2107415;28;1039;-74
2022/01/09 04:51:23;;;;;;;;;;;;;;;;;;2106384;28;1904;-74
2022/01/09 04:52:29;;;;;;;;;;;;;;;;;;2107544;28;914;-74
2022/01/09 04:53:30;;;;;;;;;;;;;;;;;;2107576;28;1026;-74
2022/01/09 04:54:36;;;;;;;;;;;;;;;;;;2106374;28;2007;-74
2022/01/09 04:55:38;;;;;;;;;;;;;;;;;;2107637;28;945;-74
2022/01/09 04:56:41;;;;;;;;;;;;;;;;;;2107219;28;1012;-75
2022/01/09 04:57:42;;;;;;;;;;;;;;;;;;2106461;28;1869;-74
2022/01/09 04:58:43;;;;;;;;;;;;;;;;;;2107501;28;972;-73
2022/01/09 04:59:45;;;;;;;;;;;;;;;;;;2107367;28;1905;-74
2022/01/09 05:00:45;;;;;;;;;;;;;;;;;;2100564;28;2015;-74
2022/01/09 05:01:47;;;;;;;;;;;;;;;;;;2098426;28;1601;-74
2022/01/09 05:02:47;;;;;;;;;;;;;;;;;;2098503;28;938;-74
2022/01/09 05:03:50;;;;;;;;;;;;;;;;;;2105033;28;1794;-74
2022/01/09 05:04:50;;;;;;;;;;;;;;;;;;2107262;28;908;-74
2022/01/09 05:05:52;;;;;;;;;;;;;;;;;;2107496;28;1000;-74
2022/01/09 05:06:55;;;;;;;;;;;;;;;;;;2106279;28;1904;-74
2022/01/09 05:07:56;;;;;;;;;;;;;;;;;;2107577;28;1032;-74
2022/01/09 05:09:00;;;;;;;;;;;;;;;;;;2107220;28;906;-73
2022/01/09 05:10:03;;;;;;;;;;;;;;;;;;2099543;28;1065;-74
2022/01/09 05:11:03;;;;;;;;;;;;;;;;;;2098850;28;950;-74
2022/01/09 05:12:05;;;;;;;;;;;;;;;;;;2098926;28;1889;-71
2022/01/09 05:13:06;;;;;;;;;;;;;;;;;;2107156;28;1135;-73
2022/01/09 05:14:07;;;;;;;;;;;;;;;;;;2107285;28;961;-73
2022/01/09 05:15:09;;;;;;;;;;;;;;;;;;2105923;28;1856;-73
2022/01/09 05:16:10;;;;;;;;;;;;;;;;;;2107345;28;907;-71
2022/01/09 05:17:13;;;;;;;;;;;;;;;;;;2107278;28;953;-71
2022/01/09 05:18:15;;;;;;;;;;;;;;;;;;2106124;28;1885;-73
2022/01/09 05:19:20;;;;;;;;;;;;;;;;;;2106074;28;1012;-70
2022/01/09 05:20:21;;;;;;;;;;;;;;;;;;2107099;28;1919;-70
2022/01/09 05:21:22;;;;;;;;;;;;;;;;;;2105961;28;1833;-71
2022/01/09 05:22:24;;;;;;;;;;;;;;;;;;2107412;28;1030;-72
2022/01/09 05:23:25;;;;;;;;;;;;;;;;;;2107234;28;838;-71
2022/01/09 05:24:26;;;;;;;;;;;;;;;;;;2106263;28;1865;-74
2022/01/09 05:25:29;;;;;;;;;;;;;;;;;;2107313;28;924;-72
2022/01/09 05:26:29;;;;;;;;;;;;;;;;;;2107304;28;1009;-71
2022/01/09 05:27:31;;;;;;;;;;;;;;;;;;2106127;28;1920;-71
2022/01/09 05:28:31;;;;;;;;;;;;;;;;;;2107335;28;1017;-74
2022/01/09 05:29:33;;;;;;;;;;;;;;;;;;2107228;28;1053;-71
2022/01/09 05:30:33;;;;;;;;;;;;;;;;;;2106052;28;1893;-71
2022/01/09 05:31:35;;;;;;;;;;;;;;;;;;2107068;28;938;-72
2022/01/09 05:32:36;;;;;;;;;;;;;;;;;;2107351;28;811;-74
2022/01/09 05:33:41;;;;;;;;;;;;;;;;;;2106092;28;1785;-72
2022/01/09 05:34:42;;;;;;;;;;;;;;;;;;2107275;28;911;-71
2022/01/09 05:35:44;;;;;;;;;;;;;;;;;;2107202;28;800;-72
2022/01/09 05:36:45;;;;;;;;;;;;;;;;;;2106169;28;1782;-72
2022/01/09 05:37:47;;;;;;;;;;;;;;;;;;2107234;28;930;-73
2022/01/09 05:38:47;;;;;;;;;;;;;;;;;;2107324;28;1065;-72
2022/01/09 05:39:53;;;;;;;;;;;;;;;;;;2106095;28;1909;-73
2022/01/09 05:40:55;;;;;;;;;;;;;;;;;;2106929;28;927;-71
2022/01/09 05:41:59;;;;;;;;;;;;;;;;;;2106873;28;1085;-70
2022/01/09 05:43:01;;;;;;;;;;;;;;;;;;2106796;28;915;-72
2022/01/09 05:44:01;;;;;;;;;;;;;;;;;;2107122;28;1299;-71
2022/01/09 05:45:04;;;;;;;;;;;;;;;;;;2106321;28;2121;-71
2022/01/09 05:46:05;;;;;;;;;;;;;;;;;;2098809;28;891;-71
2022/01/09 05:47:07;;;;;;;;;;;;;;;;;;2098981;28;1127;-72
2022/01/09 05:48:08;;;;;;;;;;;;;;;;;;2098357;28;1896;-71
2022/01/09 05:49:09;;;;;;;;;;;;;;;;;;2106578;28;969;-73
2022/01/09 05:50:10;;;;;;;;;;;;;;;;;;2107287;28;1116;-73
2022/01/09 05:51:13;;;;;;;;;;;;;;;;;;2106510;28;1939;-72
2022/01/09 05:52:15;;;;;;;;;;;;;;;;;;2107119;28;874;-72
2022/01/09 05:53:15;;;;;;;;;;;;;;;;;;2107289;28;892;-71
2022/01/09 05:54:17;;;;;;;;;;;;;;;;;;2106017;28;1995;-72
2022/01/09 05:55:18;;;;;;;;;;;;;;;;;;2106991;28;1211;-70
2022/01/09 05:56:20;;;;;;;;;;;;;;;;;;2107105;28;1301;-71
2022/01/09 05:57:21;;;;;;;;;;;;;;;;;;2106348;28;2123;-72
2022/01/09 05:58:30;;;;;;;;;;;;;;;;;;2107096;28;984;-74
2022/01/09 05:59:30;;;;;;;;;;;;;;;;;;2106391;28;1093;-73
2022/01/09 06:00:32;;;;;;;;;;;;;;;;;;2105727;28;1914;-72
2022/01/09 06:01:32;;;;;;;;;;;;;;;;;;2107312;28;1104;-70
2022/01/09 06:02:37;;;;;;;;;;;;;;;;;;2107127;28;885;-71
2022/01/09 06:03:37;;;;;;;;;;;;;;;;;;2105972;28;1861;-70
2022/01/09 06:04:39;;;;;;;;;;;;;;;;;;2107039;28;1003;-71
2022/01/09 06:05:41;;;;;;;;;;;;;;;;;;2107190;28;900;-71
2022/01/09 06:06:42;;;;;;;;;;;;;;;;;;2105931;28;2079;-73
2022/01/09 06:07:44;;;;;;;;;;;;;;;;;;2107163;28;1041;-72
2022/01/09 06:08:45;;;;;;;;;;;;;;;;;;2107098;28;920;-73
2022/01/09 06:09:51;;;;;;;;;;;;;;;;;;2107086;28;830;-70
2022/01/09 06:10:52;;;;;;;;;;;;;;;;;;2106997;28;1000;-70
2022/01/09 06:11:55;;;;;;;;;;;;;;;;;;2107188;28;895;-71
2022/01/09 06:12:56;;;;;;;;;;;;;;;;;;2106184;28;1802;-73
2022/01/09 06:13:59;;;;;;;;;;;;;;;;;;2107154;28;997;-73
2022/01/09 06:15:01;;;;;;;;;;;;;;;;;;2106352;28;1826;-72
2022/01/09 06:16:03;;;;;;;;;;;;;;;;;;2099034;28;1108;-71
2022/01/09 06:17:05;;;;;;;;;;;;;;;;;;2098758;28;1139;-72
2022/01/09 06:18:06;;;;;;;;;;;;;;;;;;2099182;28;2057;-71
2022/01/09 06:19:08;;;;;;;;;;;;;;;;;;2107190;28;945;-74
2022/01/09 06:20:12;;;;;;;;;;;;;;;;;;2107189;28;1910;-71
2022/01/09 06:21:13;;;;;;;;;;;;;;;;;;2105922;28;1849;-71
2022/01/09 06:22:18;;;;;;;;;;;;;;;;;;2107185;28;1005;-72
2022/01/09 06:23:20;;;;;;;;;;;;;;;;;;2107088;28;1055;-72
2022/01/09 06:24:21;;;;;;;;;;;;;;;;;;2106054;28;1885;-72
2022/01/09 06:25:25;;;;;;;;;;;;;;;;;;2106849;28;1080;-70
2022/01/09 06:26:25;;;;;;;;;;;;;;;;;;2107050;28;883;-70
2022/01/09 06:27:30;;;;;;;;;;;;;;;;;;2107732;28;1738;-71
2022/01/09 06:28:32;;;;;;;;;;;;;;;;;;2107996;28;1198;-70
2022/01/09 06:29:32;;;;;;;;;;;;;;;;;;2107950;28;914;-70
2022/01/09 06:30:34;;;;;;;;;;;;;;;;;;2107416;28;1822;-70
2022/01/09 06:31:36;;;;;;;;;;;;;;;;;;2108767;28;1022;-70
2022/01/09 06:32:37;;;;;;;;;;;;;;;;;;2108426;28;1433;-70
2022/01/09 06:33:39;;;;;;;;;;;;;;;;;;2108639;28;1049;-71
2022/01/09 06:34:41;;;;;;;;;;;;;;;;;;2108537;28;1076;-71
2022/01/09 06:35:44;;;;;;;;;;;;;;;;;;2108611;28;878;-71
2022/01/09 06:36:45;;;;;;;;;;;;;;;;;;2107389;28;1899;-71
2022/01/09 06:37:46;;;;;;;;;;;;;;;;;;2108662;28;872;-70
2022/01/09 06:38:47;;;;;;;;;;;;;;;;;;2108447;28;937;-70
2022/01/09 06:39:48;;;;;;;;;;;;;;;;;;2107579;28;1845;-70
2022/01/09 06:40:49;;;;;;;;;;;;;;;;;;2107749;28;1914;-70
2022/01/09 06:41:50;;;;;;;;;;;;;;;;;;2107915;28;1104;-71
2022/01/09 06:42:52;;;;;;;;;;;;;;;;;;2108425;28;953;-71
2022/01/09 06:43:54;;;;;;;;;;;;;;;;;;2108586;28;927;-70
2022/01/09 06:44:56;;;;;;;;;;;;;;;;;;2108418;28;863;-69
2022/01/09 06:46:02;;;;;;;;;;;;;;;;;;2107002;28;2260;-70
2022/01/09 06:47:02;;;;;;;;;;;;;;;;;;2107774;28;909;-71
2022/01/09 06:48:04;;;;;;;;;;;;;;;;;;2107820;28;1077;-71
2022/01/09 06:49:05;;;;;;;;;;;;;;;;;;2108439;28;1318;-70
2022/01/09 06:50:07;;;;;;;;;;;;;;;;;;2108505;28;1267;-70
2022/01/09 06:51:09;;;;;;;;;;;;;;;;;;2108281;28;906;-71
2022/01/09 06:52:12;;;;;;;;;;;;;;;;;;2108503;28;1075;-70
2022/01/09 06:53:12;;;;;;;;;;;;;;;;;;2108255;28;906;-70
2022/01/09 06:54:15;;;;;;;;;;;;;;;;;;2108388;28;1104;-71
2022/01/09 06:55:16;;;;;;;;;;;;;;;;;;2108199;28;1060;-71
2022/01/09 06:56:18;;;;;;;;;;;;;;;;;;2108473;28;962;-70
2022/01/09 06:57:18;;;;;;;;;;;;;;;;;;2107660;28;1217;-69
2022/01/09 06:58:22;;;;;;;;;;;;;;;;;;2107747;28;942;-71
2022/01/09 06:59:23;;;;;;;;;;;;;;;;;;2108539;28;929;-71
2022/01/09 07:00:24;;;;;;;;;;;;;;;;;;2106521;28;1906;-69
2022/01/09 07:01:25;;;;;;;;;;;;;;;;;;2107746;28;827;-70
2022/01/09 07:02:27;;;;;;;;;;;;;;;;;;2108297;28;1148;-70
2022/01/09 07:03:27;;;;;;;;;;;;;;;;;;2108340;28;874;-70
2022/01/09 07:04:29;;;;;;;;;;;;;;;;;;2108454;28;1098;-70
2022/01/09 07:05:29;;;;;;;;;;;;;;;;;;2108297;28;851;-69
2022/01/09 07:06:31;;;;;;;;;;;;;;;;;;2108389;28;791;-70
2022/01/09 07:07:31;;;;;;;;;;;;;;;;;;2108190;28;1110;-71
2022/01/09 07:08:33;;;;;;;;;;;;;;;;;;2108417;28;1071;-69
2022/01/09 07:09:37;;;;;;;;;;;;;;;;;;2108241;28;901;-70
2022/01/09 07:10:38;;;;;;;;;;;;;;;;;;2108429;28;991;-69
2022/01/09 07:11:39;;;;;;;;;;;;;;;;;;2108324;28;912;-70
2022/01/09 07:12:40;;;;;;;;;;;;;;;;;;2108228;28;1143;-70
2022/01/09 07:13:42;;;;;;;;;;;;;;;;;;2108280;28;1018;-71
2022/01/09 07:14:44;;;;;;;;;;;;;;;;;;2108290;28;1076;-70